createdAt,value
2022-11-22T00:00:51.467Z,5.85
2022-11-22T00:03:19.424Z,5.22
2022-11-22T00:05:47.328Z,5.45
2022-11-22T00:08:15.219Z,5.32
2022-11-22T00:10:43.113Z,5.68
2022-11-22T00:13:11.076Z,6.30
2022-11-22T00:15:38.952Z,6.20
2022-11-22T00:18:06.844Z,5.38
2022-11-22T00:20:35.118Z,5.90
2022-11-22T00:23:03.419Z,5.10
2022-11-22T00:25:31.358Z,5.97
2022-11-22T00:27:59.247Z,5.95
2022-11-22T00:30:27.069Z,6.07
2022-11-22T00:32:54.922Z,4.82
2022-11-22T00:35:22.982Z,6.10
2022-11-22T00:37:50.749Z,5.65
2022-11-22T00:40:18.766Z,6.78
2022-11-22T00:42:46.555Z,6.72
2022-11-22T00:45:14.368Z,6.60
2022-11-22T00:47:42.207Z,7.53
2022-11-22T00:50:10.754Z,7.05
2022-11-22T00:52:38.649Z,7.18
2022-11-22T00:55:06.970Z,6.60
2022-11-22T00:57:34.855Z,7.25
2022-11-22T01:00:03.025Z,7.68
2022-11-22T01:02:30.907Z,7.05
2022-11-22T01:04:58.769Z,7.00
2022-11-22T01:07:26.585Z,7.45
2022-11-22T01:09:55.703Z,7.43
2022-11-22T01:12:23.509Z,8.32
2022-11-22T01:14:51.433Z,9.43
2022-11-22T01:17:19.407Z,8.13
2022-11-22T01:19:47.248Z,9.10
2022-11-22T01:22:15.136Z,7.95
2022-11-22T01:24:42.927Z,9.82
2022-11-22T01:27:10.782Z,9.43
2022-11-22T01:29:38.628Z,8.15
2022-11-22T01:32:06.647Z,10.32
2022-11-22T01:34:34.576Z,9.55
2022-11-22T01:37:02.508Z,10.05
2022-11-22T01:39:30.413Z,9.82
2022-11-22T01:41:58.412Z,8.75
2022-11-22T01:44:29.397Z,9.45
2022-11-22T01:47:15.327Z,9.32
2022-11-22T01:49:49.552Z,9.02
2022-11-22T01:52:20.536Z,8.90
2022-11-22T01:54:57.165Z,8.90
2022-11-22T01:57:28.863Z,8.98
2022-11-22T02:00:07.614Z,9.75
2022-11-22T02:02:42.812Z,9.13
2022-11-22T02:05:16.116Z,9.23
2022-11-22T02:07:59.237Z,8.57
2022-11-22T02:10:29.252Z,8.38
2022-11-22T02:12:59.531Z,7.63
2022-11-22T02:15:28.494Z,7.93
2022-11-22T02:17:59.404Z,8.20
2022-11-22T02:20:27.455Z,8.93
2022-11-22T02:23:01.104Z,8.90
2022-11-22T02:25:37.095Z,6.68
2022-11-22T02:28:05.570Z,7.30
2022-11-22T02:30:33.468Z,8.35
2022-11-22T02:33:01.375Z,7.85
2022-11-22T02:35:29.853Z,7.97
2022-11-22T02:38:21.325Z,7.40
2022-11-22T02:41:09.436Z,7.70
2022-11-22T02:43:42.050Z,7.68
2022-11-22T02:46:12.128Z,8.18
2022-11-22T02:48:46.260Z,6.82
2022-11-22T02:51:19.558Z,7.80
2022-11-22T02:53:49.811Z,7.45
2022-11-22T02:56:18.533Z,8.10
2022-11-22T02:58:46.464Z,7.07
2022-11-22T03:01:14.501Z,8.57
2022-11-22T03:03:42.490Z,7.88
2022-11-22T03:06:10.404Z,7.35
2022-11-22T03:08:38.427Z,8.65
2022-11-22T03:11:08.025Z,8.35
2022-11-22T03:13:35.907Z,7.72
2022-11-22T03:16:03.838Z,6.60
2022-11-22T03:18:34.596Z,7.38
2022-11-22T03:21:08.743Z,7.05
2022-11-22T03:23:36.714Z,7.60
2022-11-22T03:26:09.544Z,7.45
2022-11-22T03:28:37.533Z,7.43
2022-11-22T03:31:07.270Z,7.22
2022-11-22T03:33:38.866Z,7.93
2022-11-22T03:36:06.766Z,7.38
2022-11-22T03:38:35.534Z,6.72
2022-11-22T03:41:03.512Z,6.57
2022-11-22T03:43:31.468Z,6.28
2022-11-22T03:45:59.410Z,6.32
2022-11-22T03:48:27.334Z,5.50
2022-11-22T03:51:02.365Z,5.75
2022-11-22T03:55:57.734Z,5.13
2022-11-22T03:58:25.612Z,5.63
2022-11-22T04:00:53.391Z,4.72
2022-11-22T04:03:21.417Z,4.85
2022-11-22T04:05:49.255Z,4.13
2022-11-22T04:08:17.051Z,4.55
2022-11-22T04:10:44.954Z,5.32
2022-11-22T04:13:12.783Z,5.07
2022-11-22T04:15:41.638Z,4.22
2022-11-22T04:18:13.878Z,4.32
2022-11-22T04:21:00.397Z,3.63
2022-11-22T04:23:33.745Z,3.58
2022-11-22T04:26:02.568Z,4.65
2022-11-22T04:29:01.371Z,3.50
2022-11-22T04:31:36.619Z,3.80
2022-11-22T04:34:04.363Z,3.92
2022-11-22T04:36:32.138Z,3.78
2022-11-22T04:39:00.091Z,3.30
2022-11-22T04:41:27.986Z,3.25
2022-11-22T04:44:14.485Z,3.30
2022-11-22T04:46:42.271Z,2.55
2022-11-22T04:49:10.082Z,2.78
2022-11-22T04:51:56.393Z,2.53
2022-11-22T04:54:24.266Z,2.33
2022-11-22T04:56:52.122Z,2.55
2022-11-22T04:59:20.021Z,3.08
2022-11-22T05:01:47.813Z,2.67
2022-11-22T05:04:15.752Z,2.72
2022-11-22T05:06:43.499Z,2.42
2022-11-22T05:09:11.397Z,3.00
2022-11-22T05:11:39.665Z,2.60
2022-11-22T05:14:07.546Z,2.22
2022-11-22T05:16:35.372Z,2.70
2022-11-22T05:19:03.384Z,2.40
2022-11-22T05:21:33.165Z,3.03
2022-11-22T05:24:01.661Z,2.70
2022-11-22T05:26:32.455Z,2.40
2022-11-22T05:29:08.346Z,2.63
2022-11-22T05:31:38.111Z,2.88
2022-11-22T05:34:06.184Z,2.63
2022-11-22T05:36:34.872Z,2.78
2022-11-22T05:39:03.647Z,2.50
2022-11-22T05:41:31.576Z,2.83
2022-11-22T05:43:59.423Z,2.55
2022-11-22T05:46:28.944Z,2.08
2022-11-22T05:48:58.099Z,2.15
2022-11-22T05:51:33.609Z,2.65
2022-11-22T05:54:03.757Z,2.33
2022-11-22T05:56:31.563Z,2.45
2022-11-22T05:58:59.363Z,2.45
2022-11-22T06:01:27.540Z,2.20
2022-11-22T06:03:55.495Z,2.35
2022-11-22T06:06:23.457Z,2.17
2022-11-22T06:08:51.690Z,2.65
2022-11-22T06:11:22.152Z,2.38
2022-11-22T06:13:55.706Z,2.40
2022-11-22T06:16:24.157Z,2.30
2022-11-22T06:18:53.522Z,2.33
2022-11-22T06:21:24.368Z,2.88
2022-11-22T06:23:54.549Z,2.67
2022-11-22T06:26:25.010Z,2.15
2022-11-22T06:28:54.122Z,2.85
2022-11-22T06:31:24.095Z,2.42
2022-11-22T06:33:56.473Z,2.80
2022-11-22T06:36:30.384Z,2.70
2022-11-22T06:38:59.031Z,2.83
2022-11-22T06:41:34.312Z,2.90
2022-11-22T06:44:06.059Z,3.33
2022-11-22T06:46:34.669Z,2.72
2022-11-22T06:49:03.128Z,3.17
2022-11-22T06:51:32.174Z,3.28
2022-11-22T06:54:03.107Z,3.20
2022-11-22T06:56:39.325Z,3.58
2022-11-22T06:59:08.305Z,3.50
2022-11-22T07:01:37.602Z,2.70
2022-11-22T07:04:05.649Z,3.28
2022-11-22T07:06:37.156Z,2.78
2022-11-22T07:09:07.648Z,3.08
2022-11-22T07:11:36.372Z,2.90
2022-11-22T07:14:08.352Z,2.92
2022-11-22T07:16:38.558Z,3.45
2022-11-22T07:19:08.410Z,3.15
2022-11-22T07:21:37.691Z,2.80
2022-11-22T07:24:06.946Z,2.50
2022-11-22T07:26:34.910Z,2.45
2022-11-22T07:29:03.097Z,2.33
2022-11-22T07:31:31.046Z,3.20
2022-11-22T07:33:59.012Z,2.30
2022-11-22T07:36:29.590Z,2.17
2022-11-22T07:38:57.837Z,3.00
2022-11-22T07:41:25.747Z,2.60
2022-11-22T07:43:54.029Z,3.20
2022-11-22T07:46:31.594Z,2.10
2022-11-22T07:49:01.381Z,2.38
2022-11-22T07:51:29.771Z,1.63
2022-11-22T07:53:58.016Z,2.88
2022-11-22T07:56:26.012Z,2.47
2022-11-22T07:58:54.730Z,2.95
2022-11-22T08:01:23.557Z,2.55
2022-11-22T08:03:51.410Z,2.70
2022-11-22T08:06:19.275Z,2.75
2022-11-22T08:08:47.087Z,1.80
2022-11-22T08:11:15.039Z,2.97
2022-11-22T08:13:43.842Z,2.00
2022-11-22T08:16:14.753Z,2.70
2022-11-22T08:18:46.765Z,2.55
2022-11-22T08:21:15.263Z,3.03
2022-11-22T08:23:44.157Z,2.80
2022-11-22T08:26:14.107Z,2.55
2022-11-22T08:28:43.143Z,2.17
2022-11-22T08:31:14.238Z,2.80
2022-11-22T08:33:42.415Z,1.77
2022-11-22T08:36:10.936Z,2.20
2022-11-22T08:38:39.188Z,2.15
2022-11-22T08:41:07.453Z,1.80
2022-11-22T08:43:35.352Z,1.55
2022-11-22T08:46:03.376Z,1.52
2022-11-22T08:48:32.970Z,2.30
2022-11-22T08:51:02.799Z,2.05
2022-11-22T08:53:33.747Z,2.03
2022-11-22T08:56:03.091Z,2.17
2022-11-22T08:58:33.052Z,2.80
2022-11-22T09:01:13.367Z,1.88
2022-11-22T09:03:41.839Z,2.40
2022-11-22T09:09:30.048Z,2.13
2022-11-22T09:11:51.230Z,1.95
2022-11-22T09:14:19.184Z,2.45
2022-11-22T09:16:46.990Z,3.40
2022-11-22T09:19:14.903Z,2.40
2022-11-22T09:21:42.849Z,2.20
2022-11-22T09:24:10.663Z,2.38
2022-11-22T09:26:38.540Z,2.25
2022-11-22T09:29:06.359Z,2.08
2022-11-22T09:31:34.169Z,1.98
2022-11-22T09:34:02.018Z,1.55
2022-11-22T09:36:30.858Z,1.63
2022-11-22T09:38:58.896Z,1.40
2022-11-22T09:41:35.597Z,2.20
2022-11-22T09:44:34.456Z,1.73
2022-11-22T09:47:32.230Z,1.70
2022-11-22T09:50:11.799Z,2.10
2022-11-22T09:52:49.316Z,1.88
2022-11-22T09:55:28.737Z,1.92
2022-11-22T09:58:23.303Z,1.80
2022-11-22T10:00:53.091Z,2.38
2022-11-22T10:03:47.643Z,1.70
2022-11-22T10:06:22.972Z,1.63
2022-11-22T10:09:21.692Z,1.95
2022-11-22T10:11:58.816Z,1.52
2022-11-22T10:14:44.831Z,1.95
2022-11-22T10:17:41.464Z,1.77
2022-11-22T10:20:23.655Z,1.58
2022-11-22T10:22:52.299Z,1.90
2022-11-22T10:25:40.379Z,1.52
2022-11-22T10:28:18.073Z,1.70
2022-11-22T10:31:00.582Z,1.60
2022-11-22T10:33:44.696Z,1.95
2022-11-22T10:36:36.706Z,1.90
2022-11-22T10:40:06.681Z,1.90
2022-11-22T10:42:43.247Z,1.90
2022-11-22T10:45:32.508Z,1.95
2022-11-22T10:48:12.861Z,1.90
2022-11-22T10:50:43.787Z,2.20
2022-11-22T10:53:17.299Z,2.08
2022-11-22T10:56:10.510Z,1.95
2022-11-22T10:59:00.004Z,2.45
2022-11-22T11:01:49.385Z,1.52
2022-11-22T11:04:18.863Z,2.17
2022-11-22T11:07:11.067Z,2.00
2022-11-22T11:10:10.178Z,1.77
2022-11-22T11:12:36.649Z,1.25
2022-11-22T11:15:18.490Z,1.80
2022-11-22T11:18:00.031Z,2.17
2022-11-22T11:20:31.840Z,1.50
2022-11-22T11:23:17.645Z,1.73
2022-11-22T11:25:47.667Z,1.58
2022-11-22T11:28:20.901Z,2.08
2022-11-22T11:30:58.837Z,1.73
2022-11-22T11:33:29.882Z,1.55
2022-11-22T11:36:11.155Z,1.52
2022-11-22T11:38:50.590Z,1.73
2022-11-22T11:41:32.019Z,1.63
2022-11-22T11:44:05.052Z,1.60
2022-11-22T11:46:41.869Z,1.75
2022-11-22T11:49:14.070Z,1.65
2022-11-22T11:51:55.491Z,1.40
2022-11-22T11:54:26.414Z,1.50
2022-11-22T11:57:04.556Z,1.52
2022-11-22T11:59:38.714Z,1.40
2022-11-22T12:02:17.673Z,1.50
2022-11-22T12:05:24.018Z,1.73
2022-11-22T12:07:52.282Z,2.05
2022-11-22T12:11:13.133Z,2.72
2022-11-22T12:14:12.778Z,1.65
2022-11-22T12:16:42.573Z,1.48
2022-11-22T12:22:35.731Z,1.98
2022-11-22T12:25:33.399Z,1.65
2022-11-22T12:28:14.885Z,1.70
2022-11-22T12:30:55.620Z,1.38
2022-11-22T12:33:34.164Z,1.58
2022-11-22T12:36:11.603Z,1.98
2022-11-22T12:38:45.141Z,1.77
2022-11-22T12:41:17.453Z,1.20
2022-11-22T12:43:55.841Z,1.40
2022-11-22T12:46:28.030Z,1.40
2022-11-22T12:49:04.838Z,2.20
2022-11-22T12:51:44.210Z,5.25
2022-11-22T12:54:18.331Z,1.60
2022-11-22T12:57:05.457Z,1.30
2022-11-22T13:00:02.757Z,1.80
2022-11-22T13:02:45.362Z,1.60
2022-11-22T13:05:30.218Z,1.40
2022-11-22T13:08:24.026Z,1.48
2022-11-22T13:11:19.315Z,1.50
2022-11-22T13:13:50.716Z,1.90
2022-11-22T13:16:18.633Z,1.05
2022-11-22T13:18:58.299Z,1.50
2022-11-22T13:22:00.394Z,1.50
2022-11-22T13:24:52.729Z,1.70
2022-11-22T13:27:31.461Z,1.90
2022-11-22T13:30:01.609Z,1.67
2022-11-22T13:32:36.063Z,1.27
2022-11-22T13:35:12.774Z,2.00
2022-11-22T13:37:46.453Z,1.80
2022-11-22T13:40:25.356Z,1.77
2022-11-22T13:43:15.630Z,1.90
2022-11-22T13:45:54.506Z,1.88
2022-11-22T13:48:40.874Z,1.15
2022-11-22T13:51:14.140Z,1.25
2022-11-22T13:53:44.191Z,1.63
2022-11-22T13:56:24.466Z,1.63
2022-11-22T13:59:12.862Z,1.70
2022-11-22T14:01:40.768Z,1.00
2022-11-22T14:04:19.783Z,1.10
2022-11-22T14:06:54.138Z,1.23
2022-11-22T14:09:35.637Z,1.10
2022-11-22T14:12:21.540Z,1.38
2022-11-22T14:15:13.905Z,1.10
2022-11-22T14:18:08.749Z,1.10
2022-11-22T14:20:54.230Z,1.20
2022-11-22T14:23:59.711Z,1.05
2022-11-22T14:26:55.498Z,0.90
2022-11-22T14:32:34.649Z,1.00
2022-11-22T14:35:05.761Z,1.55
2022-11-22T14:37:35.570Z,0.90
2022-11-22T14:40:17.497Z,1.27
2022-11-22T14:42:50.197Z,1.20
2022-11-22T14:45:51.486Z,0.80
2022-11-22T14:48:37.741Z,1.38
2022-11-22T14:51:09.467Z,1.20
2022-11-22T14:53:48.926Z,1.10
2022-11-22T14:56:26.522Z,1.48
2022-11-22T14:59:15.064Z,1.40
2022-11-22T15:02:13.884Z,1.00
2022-11-22T15:09:22.733Z,1.48
2022-11-22T15:09:26.583Z,0.77
2022-11-22T15:11:14.181Z,0.50
2022-11-22T15:13:52.654Z,0.52
2022-11-22T15:57:45.311Z,1.08
2022-11-22T16:00:26.476Z,1.33
2022-11-22T16:02:57.560Z,1.27
2022-11-22T16:06:07.736Z,1.48
2022-11-22T16:08:26.414Z,1.10
2022-11-22T16:10:59.422Z,1.08
2022-11-22T16:13:32.875Z,1.95
2022-11-22T16:16:13.732Z,2.15
2022-11-22T16:18:43.646Z,1.20
2022-11-22T16:21:11.630Z,1.05
2022-11-22T16:23:41.872Z,0.88
2022-11-22T16:26:24.913Z,1.55
2022-11-22T16:29:11.372Z,1.70
2022-11-22T16:31:41.403Z,1.23
2022-11-22T16:34:17.973Z,1.33
2022-11-22T16:36:46.487Z,1.27
2022-11-22T16:39:14.425Z,1.20
2022-11-22T16:41:42.487Z,1.80
2022-11-22T16:44:14.250Z,1.15
2022-11-22T16:46:42.400Z,1.20
2022-11-22T16:49:31.520Z,0.95
2022-11-22T16:51:59.940Z,1.30
2022-11-22T16:54:28.835Z,1.20
2022-11-22T16:56:56.936Z,0.98
2022-11-22T16:59:24.902Z,1.60
2022-11-22T17:01:52.746Z,1.40
2022-11-22T17:04:26.340Z,1.58
2022-11-22T17:06:54.519Z,1.98
2022-11-22T17:09:22.630Z,1.75
2022-11-22T17:11:50.786Z,1.50
2022-11-22T17:14:19.550Z,1.08
2022-11-22T17:16:47.559Z,1.83
2022-11-22T17:19:52.030Z,2.40
2022-11-22T17:22:07.398Z,1.48
2022-11-22T17:24:35.748Z,2.03
2022-11-22T17:27:03.875Z,2.05
2022-11-22T17:29:49.899Z,2.00
2022-11-22T17:32:19.728Z,1.98
2022-11-22T17:34:47.887Z,1.55
2022-11-22T17:37:18.471Z,2.20
2022-11-22T17:39:50.865Z,3.00
2022-11-22T17:42:20.175Z,2.35
2022-11-22T17:44:48.091Z,2.05
2022-11-22T17:47:16.263Z,2.42
2022-11-22T17:49:44.504Z,2.92
2022-11-22T17:52:12.284Z,2.72
2022-11-22T17:54:40.511Z,2.75
2022-11-22T17:57:08.741Z,2.83
2022-11-22T17:59:36.858Z,2.83
2022-11-22T18:02:05.290Z,3.08
2022-11-22T18:04:33.530Z,3.30
2022-11-22T18:07:02.645Z,3.30
2022-11-22T18:09:34.605Z,3.25
2022-11-22T18:12:03.293Z,3.15
2022-11-22T18:14:31.398Z,4.07
2022-11-22T18:17:02.648Z,3.95
2022-11-22T18:19:31.174Z,3.85
2022-11-22T18:21:59.517Z,4.38
2022-11-22T18:24:30.444Z,4.63
2022-11-22T18:26:59.077Z,3.78
2022-11-22T18:29:41.683Z,5.53
2022-11-22T18:32:11.141Z,5.00
2022-11-22T18:34:40.094Z,6.28
2022-11-22T18:37:11.188Z,5.70
2022-11-22T18:39:40.683Z,3.95
2022-11-22T18:42:13.612Z,6.13
2022-11-22T18:44:42.117Z,3.53
2022-11-22T18:47:10.459Z,6.32
2022-11-22T18:49:39.555Z,5.43
2022-11-22T18:52:13.468Z,5.97
2022-11-22T18:54:47.557Z,5.95
2022-11-22T18:57:15.851Z,5.97
2022-11-22T18:59:49.861Z,5.75
2022-11-22T19:02:20.056Z,6.03
2022-11-22T19:04:49.903Z,6.22
2022-11-22T19:07:18.550Z,5.85
2022-11-22T19:09:49.000Z,5.50
2022-11-22T19:12:17.275Z,6.45
2022-11-22T19:14:45.449Z,6.00
2022-11-22T19:17:18.622Z,6.13
2022-11-22T19:19:53.821Z,5.80
2022-11-22T19:22:28.303Z,5.90
2022-11-22T19:24:56.377Z,6.03
2022-11-22T19:27:25.278Z,5.35
2022-11-22T19:29:53.486Z,4.38
2022-11-22T19:32:21.423Z,5.47
2022-11-22T19:34:51.612Z,5.22
2022-11-22T19:37:39.045Z,5.18
2022-11-22T19:40:07.887Z,5.40
2022-11-22T19:42:38.506Z,6.10
2022-11-22T19:45:07.809Z,6.03
2022-11-22T19:47:35.747Z,5.15
2022-11-22T19:50:03.837Z,4.68
2022-11-22T19:52:32.279Z,4.53
2022-11-22T19:55:00.274Z,5.00
2022-11-22T19:57:31.572Z,5.05
2022-11-22T20:00:00.914Z,5.93
2022-11-22T20:02:32.034Z,5.88
2022-11-22T20:05:00.061Z,6.20
2022-11-22T20:07:30.338Z,5.93
2022-11-22T20:09:58.455Z,5.50
2022-11-22T20:12:29.412Z,5.03
2022-11-22T20:14:57.591Z,5.07
2022-11-22T20:17:25.659Z,6.00
2022-11-22T20:19:53.684Z,5.43
2022-11-22T20:22:21.651Z,5.10
2022-11-22T20:24:49.565Z,5.05
2022-11-22T20:27:24.394Z,5.15
2022-11-22T20:29:52.828Z,5.28
2022-11-22T20:32:20.841Z,5.13
2022-11-22T20:34:48.775Z,5.90
2022-11-22T20:37:16.724Z,6.05
2022-11-22T20:39:44.781Z,5.82
2022-11-22T20:42:33.509Z,5.03
2022-11-22T20:45:01.125Z,5.13
2022-11-22T20:47:30.447Z,5.45
2022-11-22T20:49:58.392Z,5.72
2022-11-22T20:52:26.374Z,5.72
2022-11-22T20:54:54.384Z,5.22
2022-11-22T20:57:22.342Z,5.18
2022-11-22T20:59:50.202Z,5.25
2022-11-22T21:02:18.185Z,5.32
2022-11-22T21:04:46.284Z,5.15
2022-11-22T21:07:16.924Z,5.60
2022-11-22T21:09:44.883Z,6.03
2022-11-22T21:12:12.875Z,8.27
2022-11-22T21:14:40.698Z,7.85
2022-11-22T21:17:39.357Z,7.47
2022-11-22T21:20:01.034Z,6.32
2022-11-22T21:22:31.843Z,6.65
2022-11-22T21:25:00.081Z,5.70
2022-11-22T21:27:27.990Z,6.95
2022-11-22T21:29:56.458Z,5.35
2022-11-22T21:32:24.709Z,6.32
2022-11-22T21:34:52.960Z,5.72
2022-11-22T21:37:20.804Z,6.43
2022-11-22T21:39:49.265Z,4.90
2022-11-22T21:42:17.195Z,6.30
2022-11-22T21:44:45.103Z,5.72
2022-11-22T21:47:13.053Z,4.97
2022-11-22T21:49:40.881Z,5.60
2022-11-22T21:52:08.917Z,5.97
2022-11-22T21:54:37.745Z,6.15
2022-11-22T21:57:05.587Z,5.30
2022-11-22T21:59:34.006Z,5.22
2022-11-22T22:02:02.132Z,4.25
2022-11-22T22:04:30.003Z,5.45
2022-11-22T22:06:57.864Z,4.47
2022-11-22T22:09:26.753Z,5.00
2022-11-22T22:11:55.953Z,4.55
2022-11-22T22:14:24.038Z,3.83
2022-11-22T22:16:51.848Z,4.47
2022-11-22T22:19:19.926Z,4.38
2022-11-22T22:21:50.982Z,4.78
2022-11-22T22:24:18.923Z,4.35
2022-11-22T22:26:46.827Z,3.80
2022-11-22T22:29:14.684Z,4.30
2022-11-22T22:31:43.677Z,3.38
2022-11-22T22:34:11.702Z,4.35
2022-11-22T22:36:39.466Z,4.53
2022-11-22T22:39:07.765Z,4.43
2022-11-22T22:41:37.470Z,3.25
2022-11-22T22:44:05.411Z,4.85
2022-11-22T22:46:33.476Z,4.78
2022-11-22T22:49:01.374Z,4.22
2022-11-22T22:51:33.458Z,4.82
2022-11-22T22:54:01.868Z,4.13
2022-11-22T22:56:31.137Z,4.82
2022-11-22T22:59:00.967Z,4.25
2022-11-22T23:01:31.132Z,4.70
2022-11-22T23:04:00.433Z,4.13
2022-11-22T23:06:30.475Z,4.65
2022-11-22T23:08:58.850Z,4.70
2022-11-22T23:11:50.004Z,4.95
2022-11-22T23:14:20.823Z,4.15
2022-11-22T23:16:52.049Z,4.60
2022-11-22T23:19:23.164Z,4.05
2022-11-22T23:21:50.963Z,4.28
2022-11-22T23:24:18.887Z,4.22
2022-11-22T23:26:46.910Z,4.40
2022-11-22T23:29:15.030Z,4.90
2022-11-22T23:31:42.894Z,4.57
2022-11-22T23:34:12.327Z,4.72
2022-11-22T23:36:41.194Z,4.38
2022-11-22T23:39:12.516Z,4.72
2022-11-22T23:41:40.394Z,4.68
2022-11-22T23:44:08.617Z,4.60
2022-11-22T23:46:36.571Z,4.53
2022-11-22T23:49:09.679Z,5.20
2022-11-22T23:51:37.589Z,4.75
2022-11-22T23:54:06.926Z,4.60
2022-11-22T23:56:37.018Z,4.80
2022-11-22T23:59:05.677Z,4.78
